Time;durP1;ratioP1;P1;durP2;ratioP2;P2;SDS_P1;SDS_P2;PMS_P1;PMS_P2;Temp;Humidity;BMP_temperature;BMP_pressure;BME280_temperature;BME280_humidity;BME280_pressure;Samples;Min_cycle;Max_cycle;Signal;HPM_P1;HPM_P2
2022/04/02 00:01:31;;;;;;;5.35;2.50;;;;;;;1.70;100.00;100426.69;7392243;19;20018;-79
2022/04/02 00:03:57;;;;;;;3.53;2.03;;;;;;;1.69;100.00;100433.38;7395209;19;20017;-79
2022/04/02 00:06:24;;;;;;;2.22;2.13;;;;;;;1.71;100.00;100433.75;7392454;19;20022;-79
2022/04/02 00:08:50;;;;;;;3.00;2.53;;;;;;;1.66;100.00;100432.22;7392508;19;20497;-79
2022/04/02 00:11:16;;;;;;;1.00;1.00;;;;;;;1.61;100.00;100432.63;7391193;19;20082;-79
2022/04/02 00:13:42;;;;;;;3.38;2.03;;;;;;;1.60;100.00;100441.25;7390329;19;20370;-79
2022/04/02 00:16:08;;;;;;;1.42;1.42;;;;;;;1.56;100.00;100437.75;7389227;19;20014;-79
2022/04/02 00:18:35;;;;;;;0.90;0.90;;;;;;;1.62;100.00;100438.91;7388903;19;20484;-79
2022/04/02 00:21:02;;;;;;;2.13;2.03;;;;;;;1.59;100.00;100425.97;7390126;19;20014;-79
2022/04/02 00:23:40;;;;;;;1.90;1.90;;;;;;;1.56;100.00;100432.28;7390288;19;20017;-79
2022/04/02 00:26:09;;;;;;;2.67;2.35;;;;;;;1.60;100.00;100438.53;7390087;19;20018;-79
2022/04/02 00:28:37;;;;;;;1.75;1.75;;;;;;;1.58;100.00;100436.19;7391831;19;20026;-79
2022/04/02 00:31:05;;;;;;;2.95;2.75;;;;;;;1.60;100.00;100438.53;7389966;19;20019;-79
2022/04/02 00:33:32;;;;;;;1.85;1.77;;;;;;;1.57;100.00;100439.31;7391433;19;20406;-79
2022/04/02 00:35:58;;;;;;;1.60;1.60;;;;;;;1.62;100.00;100442.44;7390775;19;20029;-79
2022/04/02 00:38:25;;;;;;;1.90;1.73;;;;;;;1.65;100.00;100438.06;7389080;19;20041;-79
2022/04/02 00:40:52;;;;;;;5.05;2.20;;;;;;;1.71;100.00;100442.00;7391881;19;20022;-79
2022/04/02 00:43:25;;;;;;;2.75;2.38;;;;;;;1.75;100.00;100445.50;7389747;19;20026;-79
2022/04/02 00:45:54;;;;;;;2.00;1.95;;;;;;;1.75;100.00;100440.00;7390578;19;20469;-79
2022/04/02 00:48:21;;;;;;;2.20;2.20;;;;;;;1.74;100.00;100435.69;7389736;19;20577;-79
2022/04/02 00:50:52;;;;;;;2.00;1.90;;;;;;;1.75;100.00;100431.75;7389029;19;20062;-79
2022/04/02 00:53:20;;;;;;;1.60;1.00;;;;;;;1.75;100.00;100434.50;7390031;19;20014;-79
2022/04/02 00:55:47;;;;;;;1.73;1.73;;;;;;;1.77;100.00;100427.44;7386096;19;20022;-79
2022/04/02 00:58:15;;;;;;;2.15;2.05;;;;;;;1.77;100.00;100437.63;7387507;19;20018;-78
2022/04/02 01:00:41;;;;;;;1.85;1.75;;;;;;;1.78;100.00;100430.94;7389467;19;20019;-79
2022/04/02 01:03:10;;;;;;;1.30;1.30;;;;;;;1.82;100.00;100434.47;7392167;19;20018;-79
2022/04/02 01:05:37;;;;;;;2.10;2.00;;;;;;;1.82;100.00;100434.47;7390104;19;20014;-79
2022/04/02 01:08:08;;;;;;;1.30;1.30;;;;;;;1.85;100.00;100436.41;7387919;19;20103;-79
2022/04/02 01:10:38;;;;;;;;;;;;;;;1.91;100.00;100432.03;7389292;19;20136;-79
2022/04/02 01:13:06;;;;;;;1.40;1.40;;;;;;;1.97;100.00;100435.94;7391489;19;20348;-79
2022/04/02 01:15:33;;;;;;;1.00;1.00;;;;;;;1.93;100.00;100424.97;7386898;19;20018;-79
2022/04/02 01:18:02;;;;;;;1.52;1.52;;;;;;;2.01;100.00;100428.44;7387803;19;20018;-79
2022/04/02 01:20:34;;;;;;;1.88;1.80;;;;;;;2.10;100.00;100435.03;7388287;19;20019;-79
2022/04/02 01:23:01;;;;;;;1.67;1.58;;;;;;;2.14;100.00;100429.53;7392308;19;20121;-79
2022/04/02 01:25:32;;;;;;;2.70;1.55;;;;;;;2.17;100.00;100424.00;7388810;19;20022;-79
2022/04/02 01:28:03;;;;;;;1.48;1.48;;;;;;;2.19;100.00;100420.84;7387083;19;20473;-79
2022/04/02 01:30:32;;;;;;;1.55;1.50;;;;;;;2.25;100.00;100430.22;7390761;19;20053;-79
2022/04/02 01:32:59;;;;;;;1.10;1.10;;;;;;;2.26;100.00;100420.78;7390508;19;20014;-79
2022/04/02 01:35:26;;;;;;;0.77;0.77;;;;;;;2.25;100.00;100416.50;7387755;19;20011;-79
2022/04/02 01:38:25;;;;;;;2.10;2.03;;;;;;;2.26;100.00;100420.78;7387706;19;20017;-79
2022/04/02 01:40:52;;;;;;;2.15;1.67;;;;;;;2.24;100.00;100420.41;7387065;19;20026;-79
2022/04/02 01:43:25;;;;;;;1.02;1.02;;;;;;;2.24;100.00;100423.94;7387254;19;20021;-79
2022/04/02 01:45:56;;;;;;;1.88;1.77;;;;;;;2.22;100.00;100414.53;7387302;19;20022;-79
2022/04/02 01:48:26;;;;;;;1.50;1.50;;;;;;;2.19;100.00;100415.34;7387774;19;20076;-79
2022/04/02 01:50:59;;;;;;;1.20;1.20;;;;;;;2.24;100.00;100423.16;7386961;19;20523;-79
2022/04/02 01:53:27;;;;;;;0.95;0.95;;;;;;;2.32;100.00;100423.88;7385291;19;20014;-79
2022/04/02 01:55:54;;;;;;;0.98;0.98;;;;;;;2.34;100.00;100422.28;7388028;19;20026;-79
2022/04/02 01:58:46;;;;;;;1.67;1.60;;;;;;;2.36;100.00;100419.13;7387557;19;20022;-79
2022/04/02 02:01:18;;;;;;;;;;;;;;;2.40;100.00;100415.19;7389578;19;20022;-79
2022/04/02 02:03:44;;;;;;;1.40;1.40;;;;;;;2.41;100.00;100422.22;7390311;19;19922;-79
2022/04/02 02:15:30;;;;;;;4.83;3.17;;;;;;;2.52;100.00;100422.91;7388764;19;20011;-48
2022/04/02 02:18:01;;;;;;;1.65;1.65;;;;;;;2.53;100.00;100424.47;7386437;19;20018;-48
2022/04/02 02:20:28;;;;;;;1.92;1.83;;;;;;;2.57;100.00;100419.72;7389602;19;20007;-48
2022/04/02 02:22:54;;;;;;;2.58;1.25;;;;;;;2.59;100.00;100428.34;7393510;19;20018;-48
2022/04/02 02:25:21;;;;;;;1.42;1.38;;;;;;;2.60;100.00;100427.13;7389055;19;20019;-48
2022/04/02 02:27:51;;;;;;;1.67;1.20;;;;;;;2.59;100.00;100425.59;7388963;19;20498;-48
2022/04/02 02:30:20;;;;;;;0.85;0.82;;;;;;;2.62;100.00;100427.50;7389158;19;20014;-48
2022/04/02 02:32:47;;;;;;;1.67;1.65;;;;;;;2.61;100.00;100420.47;7393736;19;20014;-48
2022/04/02 02:38:06;;;;;;;1.65;1.65;;;;;;;2.74;100.00;100424.25;7390124;19;20486;-48
2022/04/02 02:40:39;;;;;;;1.65;1.55;;;;;;;2.81;100.00;100417.91;7388971;19;20085;-48
2022/04/02 02:43:08;;;;;;;6.55;3.22;;;;;;;2.82;100.00;100425.75;7393397;19;20039;-48
2022/04/02 02:45:37;;;;;;;2.85;1.60;;;;;;;2.83;100.00;100421.81;7388744;19;20428;-48
2022/04/02 02:48:04;;;;;;;1.70;1.42;;;;;;;2.87;100.00;100421.75;7388138;19;20014;-48
2022/04/02 02:50:42;;;;;;;3.22;1.63;;;;;;;2.86;100.00;100420.97;7388528;19;20010;-48
2022/04/02 02:53:11;;;;;;;6.43;2.47;;;;;;;2.86;100.00;100414.69;7392782;19;20039;-48
2022/04/02 02:55:38;;;;;;;1.33;1.33;;;;;;;2.84;100.00;100417.84;7388122;19;20327;-48
2022/04/02 02:58:08;;;;;;;5.32;1.90;;;;;;;2.86;100.00;100415.47;7389385;19;20351;-48
2022/04/02 03:00:35;;;;;;;2.65;2.55;;;;;;;2.87;100.00;100414.31;7389241;19;20007;-48
2022/04/02 03:03:03;;;;;;;2.58;2.38;;;;;;;2.86;100.00;100411.94;7392652;19;20364;-48
2022/04/02 03:05:32;;;;;;;1.92;1.83;;;;;;;2.83;100.00;100407.28;7387449;19;20451;-48
2022/04/02 03:08:04;;;;;;;2.30;2.03;;;;;;;2.78;100.00;100404.97;7388618;19;20025;-48
2022/04/02 03:10:44;;;;;;;1.40;1.40;;;;;;;2.69;100.00;100399.94;7388461;19;20015;-48
2022/04/02 03:13:12;;;;;;;1.67;1.63;;;;;;;2.61;100.00;100398.47;7392118;19;20455;-48
2022/04/02 03:15:38;;;;;;;3.50;3.30;;;;;;;2.55;100.00;100402.84;7387543;19;20007;-48
2022/04/02 03:18:08;;;;;;;1.42;1.42;;;;;;;2.54;100.00;100397.75;7386987;19;20019;-48
2022/04/02 03:20:41;;;;;;;2.45;1.92;;;;;;;2.57;100.00;100403.22;7388403;19;20046;-48
2022/04/02 03:23:09;;;;;;;10.57;2.35;;;;;;;2.59;100.00;100397.31;7390576;19;20014;-49
2022/04/02 03:25:35;;;;;;;1.77;1.67;;;;;;;2.54;100.00;100398.53;7386975;19;20372;-48
2022/04/02 03:28:04;;;;;;;1.92;1.85;;;;;;;2.53;100.00;100397.00;7387708;19;20011;-48
2022/04/02 03:30:31;;;;;;;4.80;2.35;;;;;;;2.53;100.00;100386.00;7394432;19;20014;-48
2022/04/02 03:32:59;;;;;;;2.40;1.60;;;;;;;2.50;100.00;100381.31;7398704;19;20012;-49
2022/04/02 03:35:26;;;;;;;2.10;2.03;;;;;;;2.49;100.00;100382.47;7395234;19;20015;-49
2022/04/02 03:37:54;;;;;;;2.53;2.35;;;;;;;2.50;100.00;100397.00;7394702;19;20007;-49
2022/04/02 03:40:24;;;;;;;1.75;1.65;;;;;;;2.56;100.00;100393.41;7394577;19;20031;-49
2022/04/02 03:42:52;;;;;;;1.63;1.50;;;;;;;2.61;100.00;100392.97;7398184;19;20042;-48
2022/04/02 03:45:24;;;;;;;2.10;1.83;;;;;;;2.64;100.00;100394.88;7394376;19;20017;-48
2022/04/02 03:47:54;;;;;;;1.00;1.00;;;;;;;2.66;100.00;100391.75;7394973;19;20011;-48
2022/04/02 03:50:21;;;;;;;1.95;1.83;;;;;;;2.68;100.00;100398.41;7394808;19;20026;-48
2022/04/02 03:52:51;;;;;;;3.05;1.88;;;;;;;2.76;100.00;100401.84;7397905;19;20462;-48
2022/04/02 03:55:22;;;;;;;1.73;1.63;;;;;;;2.79;100.00;100399.06;7394588;19;20050;-49
2022/04/02 03:57:50;;;;;;;1.63;1.60;;;;;;;2.81;100.00;100402.19;7395163;19;20038;-48
2022/04/02 04:00:19;;;;;;;1.33;1.23;;;;;;;2.79;100.00;100399.06;7395183;19;20011;-48
2022/04/02 04:02:56;;;;;;;1.65;1.55;;;;;;;2.82;100.00;100395.47;7399414;19;20102;-49
2022/04/02 04:05:28;;;;;;;1.90;1.90;;;;;;;2.89;100.00;100402.88;7395878;19;20014;-49
2022/04/02 04:07:57;;;;;;;1.42;1.33;;;;;;;2.95;100.00;100402.03;7394110;19;20017;-48
2022/04/02 04:10:25;;;;;;;2.03;1.92;;;;;;;2.98;100.00;100401.22;7394256;19;20011;-48
2022/04/02 04:12:53;;;;;;;4.10;2.65;;;;;;;2.98;100.00;100401.22;7397772;19;20018;-49
2022/04/02 04:15:24;;;;;;;6.43;3.03;;;;;;;2.99;100.00;100408.25;7393864;19;20056;-48
2022/04/02 04:17:52;;;;;;;2.60;2.40;;;;;;;3.00;100.00;100398.81;7393686;19;20017;-48
2022/04/02 04:20:20;;;;;;;2.10;2.00;;;;;;;3.01;100.00;100410.63;7392513;19;20014;-49
2022/04/02 04:22:46;;;;;;;2.47;2.33;;;;;;;3.03;100.00;100400.75;7396876;19;20014;-48
2022/04/02 04:25:16;;;;;;;1.23;1.23;;;;;;;3.07;100.00;100408.97;7393132;19;20014;-49
2022/04/02 04:27:45;;;;;;;1.90;1.80;;;;;;;3.06;100.00;100408.19;7392843;19;20074;-48
2022/04/02 04:30:13;;;;;;;1.90;1.80;;;;;;;3.04;100.00;100405.06;7391824;19;20014;-48
2022/04/02 04:32:40;;;;;;;1.17;1.17;;;;;;;3.00;100.00;100415.34;7395397;19;20030;-48
2022/04/02 04:35:07;;;;;;;1.65;1.60;;;;;;;2.98;100.00;100417.72;7393848;19;20010;-48
2022/04/02 04:37:37;;;;;;;1.38;1.25;;;;;;;2.99;100.00;100413.75;7393878;19;20040;-48
2022/04/02 04:40:10;;;;;;;5.13;1.90;;;;;;;3.00;100.00;100420.84;7392041;19;20010;-48
2022/04/02 04:42:39;;;;;;;2.15;1.98;;;;;;;2.97;100.00;100421.66;7396478;19;20014;-48
2022/04/02 04:45:07;;;;;;;1.10;1.10;;;;;;;2.94;100.00;100413.44;7392851;19;20082;-49
2022/04/02 04:47:36;;;;;;;16.25;2.17;;;;;;;2.89;100.00;100411.91;7393328;19;20379;-48
2022/04/02 04:50:03;;;;;;;2.55;1.80;;;;;;;2.88;100.00;100429.59;7392671;19;20010;-48
2022/04/02 04:52:32;;;;;;;2.35;1.20;;;;;;;2.83;100.00;100426.53;7395665;19;20007;-48
2022/04/02 04:55:02;;;;;;;2.08;1.98;;;;;;;2.84;100.00;100428.06;7393146;19;20015;-48
2022/04/02 04:57:30;;;;;;;3.95;2.72;;;;;;;2.82;100.00;100424.94;7390127;19;20015;-49
2022/04/02 05:00:06;;;;;;;2.95;1.52;;;;;;;2.78;100.00;100424.22;7391684;19;20562;-48
2022/04/02 05:02:35;;;;;;;1.03;1.03;;;;;;;2.68;100.00;100420.41;7396071;19;20633;-48
2022/04/02 05:05:02;;;;;;;1.83;1.73;;;;;;;2.59;100.00;100414.59;7392892;19;20237;-48
2022/04/02 05:07:30;;;;;;;1.55;1.45;;;;;;;2.47;100.00;100431.59;7393282;19;20479;-48
2022/04/02 05:09:58;;;;;;;2.50;1.17;;;;;;;2.37;100.00;100426.97;7393404;19;20027;-49
2022/04/02 05:12:26;;;;;;;1.48;1.48;;;;;;;2.35;100.00;100431.31;7397940;19;20024;-48
2022/04/02 05:14:53;;;;;;;2.35;2.25;;;;;;;2.28;100.00;100426.66;7391660;19;20015;-48
2022/04/02 05:17:22;;;;;;;1.70;1.52;;;;;;;2.20;100.00;100430.66;7393388;19;20031;-48
2022/04/02 05:19:49;;;;;;;1.08;1.08;;;;;;;2.16;100.00;100432.66;7393210;19;20020;-49
2022/04/02 05:22:16;;;;;;;2.30;2.20;;;;;;;2.09;100.00;100424.44;7396518;19;20010;-49
2022/04/02 05:24:49;;;;;;;1.85;1.75;;;;;;;2.02;100.00;100433.53;7393340;19;20006;-48
2022/04/02 05:27:17;;;;;;;2.22;2.03;;;;;;;1.94;100.00;100436.72;7392009;19;20036;-48
2022/04/02 05:29:43;;;;;;;1.75;1.70;;;;;;;1.96;100.00;100443.38;7391785;19;20494;-48
2022/04/02 05:32:10;;;;;;;9.13;2.72;;;;;;;1.92;100.00;100442.63;7395125;19;20018;-48
2022/04/02 05:34:39;;;;;;;3.67;1.92;;;;;;;1.85;100.00;100444.63;7389574;19;20035;-49
2022/04/02 05:37:05;;;;;;;3.90;1.83;;;;;;;1.77;100.00;100445.88;7391643;19;20354;-49
2022/04/02 05:39:32;;;;;;;4.28;2.25;;;;;;;1.77;100.00;100448.63;7392011;19;20006;-49
2022/04/02 05:41:59;;;;;;;1.95;1.58;;;;;;;1.71;100.00;100444.72;7392869;19;20017;-48
2022/04/02 05:44:25;;;;;;;1.83;1.38;;;;;;;1.67;100.00;100449.47;7393019;19;20646;-48
2022/04/02 05:46:51;;;;;;;1.42;1.33;;;;;;;1.63;100.00;100451.41;7391651;19;20043;-48
2022/04/02 05:49:17;;;;;;;2.78;2.40;;;;;;;1.63;100.00;100454.16;7392155;19;20479;-48
2022/04/02 05:51:44;;;;;;;3.80;2.88;;;;;;;1.62;100.00;100453.41;7391771;19;20328;-48
2022/04/02 05:54:10;;;;;;;16.65;2.80;;;;;;;1.59;100.00;100458.91;7390719;19;20010;-49
2022/04/02 05:56:37;;;;;;;2.67;1.85;;;;;;;1.54;100.00;100458.13;7392029;19;20106;-49
2022/04/02 05:59:05;;;;;;;2.25;2.15;;;;;;;1.52;100.00;100454.22;7392647;19;20035;-49
2022/04/02 06:01:37;;;;;;;2.40;2.20;;;;;;;1.43;100.00;100449.19;7392410;19;20015;-49
2022/04/02 06:04:03;;;;;;;1.55;1.55;;;;;;;1.39;100.00;100451.16;7394049;19;20112;-49
2022/04/02 06:06:33;;;;;;;1.10;1.10;;;;;;;1.40;100.00;100462.91;7396264;19;20049;-49
2022/04/02 06:08:59;;;;;;;2.95;2.75;;;;;;;1.41;100.00;100459.78;7390256;19;20018;-49
2022/04/02 06:11:25;;;;;;;1.58;1.55;;;;;;;1.43;100.00;100462.09;7391822;19;20007;-49
2022/04/02 06:13:51;;;;;;;1.80;1.80;;;;;;;1.43;100.00;100459.38;7389829;19;20016;-49
2022/04/02 06:16:17;;;;;;;5.68;2.63;;;;;;;1.42;100.00;100461.34;7389568;19;20011;-49
2022/04/02 06:18:44;;;;;;;5.43;2.92;;;;;;;1.39;100.00;100461.34;7390993;19;20010;-49
2022/04/02 06:21:11;;;;;;;2.22;2.10;;;;;;;1.39;100.00;100456.66;7391445;19;20021;-49
2022/04/02 06:23:37;;;;;;;1.98;1.77;;;;;;;1.43;100.00;100473.88;7391726;19;20042;-49
2022/04/02 06:26:04;;;;;;;8.35;2.60;;;;;;;1.46;100.00;100480.53;7391412;19;20086;-49
2022/04/02 06:28:30;;;;;;;1.52;1.52;;;;;;;1.49;100.00;100483.25;7390156;19;20014;-49
2022/04/02 06:30:56;;;;;;;4.63;3.15;;;;;;;1.55;100.00;100480.88;7388751;19;20007;-49
2022/04/02 06:33:25;;;;;;;7.57;4.18;;;;;;;1.62;100.00;100480.06;7389929;19;20006;-49
2022/04/02 06:35:52;;;;;;;5.97;3.17;;;;;;;1.69;100.00;100485.53;7388829;19;20011;-49
2022/04/02 06:38:18;;;;;;;10.25;4.05;;;;;;;1.72;100.00;100479.22;7388154;19;20014;-49
2022/04/02 06:40:44;;;;;;;4.53;3.00;;;;;;;1.74;100.00;100490.59;7391002;19;20034;-49
2022/04/02 06:43:10;;;;;;;2.03;1.92;;;;;;;1.79;100.00;100487.44;7394864;19;20011;-49
2022/04/02 06:45:54;;;;;;;2.50;2.30;;;;;;;1.86;100.00;100495.63;7388363;19;20499;-49
2022/04/02 06:48:20;;;;;;;1.73;1.73;;;;;;;1.90;100.00;100497.19;7390766;19;20029;-49
2022/04/02 06:50:47;;;;;;;5.15;2.30;;;;;;;1.94;100.00;100508.91;7390107;19;20014;-49
2022/04/02 06:53:13;;;;;;;2.60;1.25;;;;;;;1.92;100.00;100505.00;7390819;19;20026;-50
2022/04/02 06:55:40;;;;;;;2.13;2.03;;;;;;;2.03;100.00;100513.97;7391023;19;20007;-49
2022/04/02 06:58:06;;;;;;;2.17;1.90;;;;;;;2.09;100.00;100513.16;7389329;19;20040;-50
2022/04/02 07:00:32;;;;;;;3.33;2.22;;;;;;;2.10;100.00;100502.94;7391792;19;20576;-49
2022/04/02 07:02:58;;;;;;;5.90;3.08;;;;;;;2.13;100.00;100504.88;7392652;19;20030;-50
2022/04/02 07:05:25;;;;;;;10.15;2.67;;;;;;;2.18;100.00;100513.47;7389796;19;20388;-50
2022/04/02 07:07:51;;;;;;;5.35;3.20;;;;;;;2.24;100.00;100513.81;7389788;19;20467;-49
2022/04/02 07:10:17;;;;;;;3.22;3.03;;;;;;;2.28;100.00;100520.06;7387863;19;20007;-50
2022/04/02 07:12:44;;;;;;;3.85;3.40;;;;;;;2.32;100.00;100528.31;7392872;19;20015;-49
2022/04/02 07:15:10;;;;;;;7.15;4.10;;;;;;;2.36;100.00;100526.31;7388850;19;20031;-50
2022/04/02 07:17:36;;;;;;;2.70;2.20;;;;;;;2.46;100.00;100529.00;7389467;19;20019;-50
2022/04/02 07:20:03;;;;;;;3.63;2.70;;;;;;;2.56;100.00;100532.81;7389705;19;20428;-50
2022/04/02 07:22:31;;;;;;;5.03;4.05;;;;;;;2.64;100.00;100535.09;7391640;19;20014;-50
2022/04/02 07:24:57;;;;;;;2.92;2.80;;;;;;;2.71;100.00;100532.31;7389563;19;20082;-50
2022/04/02 07:27:27;;;;;;;3.50;2.42;;;;;;;2.83;100.00;100533.78;7389267;19;20014;-50
2022/04/02 07:29:54;;;;;;;1.98;1.45;;;;;;;2.95;100.00;100539.56;7388147;19;20371;-50
2022/04/02 07:32:21;;;;;;;4.72;3.20;;;;;;;3.03;100.00;100535.53;7392127;19;20104;-49
2022/04/02 07:34:47;;;;;;;10.73;3.70;;;;;;;3.10;100.00;100542.94;7387973;19;20047;-50
2022/04/02 07:37:16;;;;;;;6.93;2.33;;;;;;;3.16;100.00;100541.34;7388099;19;20006;-49
2022/04/02 07:39:53;;;;;;;6.78;3.20;;;;;;;3.21;100.00;100551.09;7390068;19;20039;-49
2022/04/02 07:42:23;;;;;;;4.32;2.50;;;;;;;3.28;100.00;100551.03;7389636;19;20006;-50
2022/04/02 07:45:04;;;;;;;3.45;1.92;;;;;;;3.43;100.00;100553.22;7386745;19;20463;-49
2022/04/02 07:47:33;;;;;;;3.40;1.92;;;;;;;3.52;100.00;100545.28;7391152;19;20035;-49
2022/04/02 07:50:03;;;;;;;1.83;1.60;;;;;;;3.58;100.00;100537.31;7391988;19;20014;-49
2022/04/02 07:52:31;;;;;;;8.10;2.20;;;;;;;3.65;100.00;100543.53;7390057;19;20034;-49
2022/04/02 07:55:01;;;;;;;9.82;3.20;;;;;;;3.76;100.00;100548.91;7387582;19;20011;-49
2022/04/02 07:57:37;;;;;;;8.00;2.08;;;;;;;3.88;100.00;100550.34;7389368;19;20046;-49
2022/04/02 08:00:04;;;;;;;11.95;2.33;;;;;;;4.00;100.00;100547.03;7386953;19;20031;-49
2022/04/02 08:02:42;;;;;;;2.22;2.00;;;;;;;4.12;100.00;100550.00;7391032;19;20015;-49
2022/04/02 08:05:12;;;;;;;2.13;1.75;;;;;;;4.28;100.00;100547.44;7387785;19;20738;-49
2022/04/02 08:07:43;;;;;;;3.35;2.17;;;;;;;4.45;100.00;100546.38;7393097;19;20387;-50
2022/04/02 08:10:14;;;;;;;4.15;2.33;;;;;;;4.58;100.00;100550.13;7387982;19;20011;-49
2022/04/02 08:12:44;;;;;;;6.05;1.75;;;;;;;4.73;100.00;100549.88;7390357;19;20451;-50
2022/04/02 08:15:16;;;;;;;8.50;1.73;;;;;;;4.82;100.00;100544.63;7388935;19;20015;-50
2022/04/02 08:17:46;;;;;;;2.28;1.38;;;;;;;4.89;100.00;100550.03;7394732;19;20347;-50
2022/04/02 08:20:17;;;;;;;3.03;1.58;;;;;;;4.95;100.00;100540.06;7392739;19;20044;-50
2022/04/02 08:22:45;;;;;;;4.22;1.98;;;;;;;5.05;100.00;100547.34;7398202;19;20015;-50
2022/04/02 08:25:13;;;;;;;0.98;0.80;;;;;;;5.17;100.00;100553.06;7396567;19;20039;-50
2022/04/02 08:27:59;;;;;;;8.38;2.40;;;;;;;5.29;100.00;100555.22;7394457;19;20022;-51
2022/04/02 08:30:32;;;;;;;2.55;2.00;;;;;;;5.47;100.00;100554.09;7395521;19;20041;-51
2022/04/02 08:32:58;;;;;;;5.05;2.65;;;;;;;5.64;100.00;100559.28;7397157;19;20447;-51
2022/04/02 08:35:32;;;;;;;1.95;1.77;;;;;;;5.88;100.00;100562.78;7395350;19;20070;-51
2022/04/02 08:38:27;;;;;;;9.30;2.00;;;;;;;6.23;100.00;100564.00;7395828;19;20035;-51
2022/04/02 08:41:03;;;;;;;1.75;1.17;;;;;;;6.59;100.00;100579.38;7394622;19;20356;-52
2022/04/02 08:43:44;;;;;;;4.85;1.77;;;;;;;6.88;100.00;100571.16;7395423;19;20370;-52
2022/04/02 08:46:35;;;;;;;2.42;2.22;;;;;;;7.16;100.00;100576.00;7395493;19;20438;-52
2022/04/02 08:49:34;;;;;;;4.53;1.90;;;;;;;7.49;100.00;100569.16;7393568;19;20077;-52
2022/04/02 08:52:22;;;;;;;3.05;1.02;;;;;;;7.76;100.00;100570.81;7393467;19;20026;-52
2022/04/02 08:54:54;;;;;;;4.13;1.52;;;;;;;7.97;100.00;100582.06;7390934;19;20463;-52
2022/04/02 08:57:40;;;;;;;2.08;0.95;;;;;;;8.05;100.00;100572.34;7393594;19;20352;-52
2022/04/02 09:00:12;;;;;;;8.57;1.27;;;;;;;8.11;100.00;100569.81;7393623;19;20084;-52
2022/04/02 09:02:47;;;;;;;0.93;0.93;;;;;;;8.19;100.00;100576.69;7395193;19;20066;-52
2022/04/02 09:05:32;;;;;;;4.30;1.35;;;;;;;8.14;100.00;100580.03;7392116;19;20011;-52
2022/04/02 09:08:27;;;;;;;2.92;1.42;;;;;;;8.17;100.00;100565.25;7393514;19;20011;-52
2022/04/02 09:11:12;;;;;;;2.28;1.70;;;;;;;8.22;100.00;100570.25;7394283;19;20023;-52
2022/04/02 09:14:05;;;;;;;1.10;1.05;;;;;;;8.34;100.00;100577.84;7391500;19;20021;-53
2022/04/02 09:16:58;;;;;;;0.50;0.50;;;;;;;8.37;100.00;100576.97;7392378;19;20017;-52
2022/04/02 09:19:51;;;;;;;3.30;1.00;;;;;;;8.52;100.00;100578.09;7393115;19;20018;-52
2022/04/02 09:22:36;;;;;;;0.80;0.80;;;;;;;8.52;100.00;100575.31;7395896;19;20023;-52
2022/04/02 09:25:20;;;;;;;1.40;0.68;;;;;;;8.60;100.00;100573.84;7392844;19;20015;-52
2022/04/02 09:28:09;;;;;;;1.08;0.98;;;;;;;8.68;100.00;100580.75;7393524;19;20011;-52
2022/04/02 09:31:21;;;;;;;0.40;0.40;;;;;;;8.75;100.00;100580.50;7390364;19;20010;-52
2022/04/02 09:34:45;;;;;;;0.55;0.55;;;;;;;8.86;100.00;100580.16;7389437;19;20017;-52
2022/04/02 09:37:22;;;;;;;0.28;0.28;;;;;;;9.16;100.00;100583.13;7387874;19;20517;-52
2022/04/02 09:40:03;;;;;;;0.60;0.60;;;;;;;9.24;100.00;100585.66;7389095;19;20011;-52
2022/04/02 09:42:49;;;;;;;0.30;0.30;;;;;;;9.18;100.00;100589.00;7395242;19;20023;-51
2022/04/02 09:45:32;;;;;;;0.40;0.40;;;;;;;9.18;100.00;100585.47;7393018;19;20021;-52
2022/04/02 09:48:16;;;;;;;0.20;0.20;;;;;;;9.20;100.00;100593.34;7392626;19;20026;-52
2022/04/02 09:50:44;;;;;;;2.40;0.40;;;;;;;9.62;100.00;100595.44;7391319;19;20438;-51
2022/04/02 09:53:19;;;;;;;0.50;0.50;;;;;;;10.01;100.00;100594.03;7394612;19;20015;-51
2022/04/02 09:56:18;;;;;;;0.70;0.70;;;;;;;10.29;100.00;100579.06;7390280;19;20011;-52
2022/04/02 09:59:06;;;;;;;0.50;0.50;;;;;;;10.53;100.00;100587.69;7391234;19;20010;-51
2022/04/02 10:01:42;;;;;;;0.75;0.75;;;;;;;10.82;100.00;100588.13;7393085;19;20006;-51
2022/04/02 10:04:08;;;;;;;0.52;0.52;;;;;;;11.11;100.00;100587.75;7395066;19;20015;-51
2022/04/02 10:06:40;;;;;;;1.30;0.70;;;;;;;11.26;100.00;100585.94;7390695;19;20035;-51
2022/04/02 10:09:09;;;;;;;1.65;0.60;;;;;;;11.45;100.00;100587.50;7391518;19;20015;-51
2022/04/02 10:11:52;;;;;;;0.60;0.60;;;;;;;11.43;100.00;100587.19;7392851;19;20010;-51
2022/04/02 10:14:23;;;;;;;0.57;0.52;;;;;;;11.49;100.00;100585.31;7389194;19;20485;-51
2022/04/02 10:16:55;;;;;;;1.42;1.05;;;;;;;11.55;100.00;100591.03;7391352;19;20015;-51
2022/04/02 10:19:28;;;;;;;1.08;0.65;;;;;;;11.34;100.00;100587.16;7391463;19;20011;-51
2022/04/02 10:21:57;;;;;;;0.30;0.30;;;;;;;11.45;99.37;100587.50;7393416;19;20078;-51
2022/04/02 10:24:33;;;;;;;0.40;0.40;;;;;;;11.24;95.59;100596.78;7389014;19;20040;-51
2022/04/02 10:27:02;;;;;;;0.50;0.50;;;;;;;11.10;94.98;100591.78;7389281;19;20014;-52
2022/04/02 10:29:50;;;;;;;3.13;1.13;;;;;;;10.91;92.85;100590.16;7390223;19;20031;-51
2022/04/02 10:32:25;;;;;;;0.45;0.45;;;;;;;10.60;91.10;100593.78;7390885;19;20010;-51
2022/04/02 10:34:58;;;;;;;0.50;0.47;;;;;;;10.43;92.71;100586.91;7388435;19;20017;-52
2022/04/02 10:37:30;;;;;;;0.40;0.40;;;;;;;10.37;96.10;100580.34;7389453;19;20359;-51
2022/04/02 10:40:01;;;;;;;0.63;0.60;;;;;;;10.31;97.67;100587.75;7390088;19;20015;-52
2022/04/02 10:42:37;;;;;;;0.60;0.60;;;;;;;10.34;99.53;100586.06;7394838;19;20047;-51
2022/04/02 10:45:07;;;;;;;0.70;0.70;;;;;;;10.41;98.90;100581.00;7389360;19;20022;-51
2022/04/02 10:47:41;;;;;;;0.45;0.45;;;;;;;10.49;98.48;100587.84;7389674;19;20014;-51
2022/04/02 10:50:08;;;;;;;0.60;0.60;;;;;;;10.57;100.00;100589.13;7389570;19;20029;-51
2022/04/02 10:52:35;;;;;;;0.70;0.70;;;;;;;10.45;98.49;100592.78;7389284;19;20011;-51
2022/04/02 10:55:03;;;;;;;0.70;0.70;;;;;;;10.36;99.18;100589.94;7389642;19;20041;-52
2022/04/02 10:57:32;;;;;;;5.20;1.25;;;;;;;10.38;100.00;100595.84;7390375;19;20013;-51
2022/04/02 11:00:03;;;;;;;1.50;1.40;;;;;;;10.40;100.00;100590.59;7389962;19;20014;-51
2022/04/02 11:02:50;;;;;;;;;;;;;;;10.31;99.59;100593.31;7391783;19;20018;-51
2022/04/02 11:05:18;;;;;;;0.60;0.60;;;;;;;10.22;100.00;100587.69;7389860;19;19921;-51
2022/04/02 11:07:48;;;;;;;1.08;1.08;;;;;;;10.24;100.00;100582.47;7388755;19;20002;-51
2022/04/02 11:10:17;;;;;;;0.97;0.97;;;;;;;10.42;99.67;100582.53;7388279;19;20014;-51
2022/04/02 11:12:45;;;;;;;1.50;1.25;;;;;;;10.47;97.00;100579.19;7392429;19;20251;-51
2022/04/02 11:15:24;;;;;;;0.80;0.80;;;;;;;10.72;96.46;100589.31;7386376;19;20459;-51
2022/04/02 11:17:55;;;;;;;1.38;0.50;;;;;;;10.96;94.21;100584.00;7389233;19;20003;-51
2022/04/02 11:20:22;;;;;;;1.52;1.20;;;;;;;10.94;92.58;100583.66;7389085;19;20017;-51
2022/04/02 11:22:51;;;;;;;9.18;1.08;;;;;;;10.90;93.29;100585.81;7392224;19;20017;-51
2022/04/02 11:25:22;;;;;;;2.08;0.63;;;;;;;10.87;93.55;100584.72;7389987;19;20018;-51
2022/04/02 11:27:50;;;;;;;0.50;0.50;;;;;;;10.82;92.08;100587.34;7390419;19;20048;-51
2022/04/02 11:30:18;;;;;;;0.50;0.50;;;;;;;10.70;89.75;100591.03;7390834;19;20015;-51
2022/04/02 11:32:47;;;;;;;0.70;0.70;;;;;;;10.61;91.18;100591.78;7394304;19;20019;-51
2022/04/02 11:35:21;;;;;;;1.75;0.77;;;;;;;10.61;92.67;100589.00;7388028;19;20048;-51
2022/04/02 11:38:05;;;;;;;0.50;0.50;;;;;;;10.45;92.89;100592.78;7389225;19;20011;-51
2022/04/02 11:40:38;;;;;;;0.68;0.68;;;;;;;10.39;93.48;100594.63;7389845;19;20066;-51
2022/04/02 11:43:05;;;;;;;0.40;0.40;;;;;;;10.32;93.68;100594.88;7392970;19;20022;-51
2022/04/02 11:45:33;;;;;;;3.20;0.80;;;;;;;10.32;94.10;100599.66;7388320;19;20031;-51
2022/04/02 11:48:11;;;;;;;1.52;0.65;;;;;;;10.33;93.50;100599.19;7388956;19;20010;-51
2022/04/02 11:50:44;;;;;;;0.57;0.57;;;;;;;10.35;90.05;100599.53;7390225;19;20035;-51
2022/04/02 11:53:12;;;;;;;1.38;0.77;;;;;;;10.42;89.21;100604.03;7399861;19;20017;-51
2022/04/02 11:55:40;;;;;;;0.63;0.63;;;;;;;10.49;88.71;100603.78;7396804;19;20509;-48